createdAt,value
2024-02-02T00:01:48.191Z,99.90
2024-02-02T00:04:17.015Z,99.90
2024-02-02T00:06:47.984Z,99.90
2024-02-02T00:09:20.811Z,99.90
2024-02-02T00:11:50.137Z,99.90
2024-02-02T00:14:32.144Z,99.90
2024-02-02T00:17:02.225Z,99.90
2024-02-02T00:19:31.063Z,99.90
2024-02-02T00:21:59.569Z,99.90
2024-02-02T00:24:28.470Z,99.90
2024-02-02T00:26:57.138Z,99.90
2024-02-02T00:29:25.706Z,99.90
2024-02-02T00:31:54.251Z,99.90
2024-02-02T00:34:24.303Z,99.90
2024-02-02T00:36:53.637Z,99.90
2024-02-02T00:39:22.224Z,99.90
2024-02-02T00:41:50.912Z,99.90
2024-02-02T00:44:19.745Z,99.90
2024-02-02T00:46:48.269Z,99.90
2024-02-02T00:49:17.214Z,99.90
2024-02-02T00:51:47.194Z,99.90
2024-02-02T00:54:16.077Z,99.90
2024-02-02T00:56:44.791Z,99.90
2024-02-02T00:59:13.672Z,99.90
2024-02-02T01:01:42.669Z,99.90
2024-02-02T01:04:11.372Z,99.90
2024-02-02T01:06:40.587Z,99.90
2024-02-02T01:09:12.151Z,99.90
2024-02-02T01:11:41.187Z,99.90
2024-02-02T01:14:09.941Z,99.90
2024-02-02T01:16:38.780Z,99.90
2024-02-02T01:19:10.373Z,99.90
2024-02-02T01:21:41.554Z,99.90
2024-02-02T01:24:11.739Z,99.90
2024-02-02T01:26:40.427Z,99.90
2024-02-02T01:29:10.091Z,99.90
2024-02-02T01:31:38.811Z,99.90
2024-02-02T01:34:07.522Z,99.90
2024-02-02T01:36:38.362Z,99.90
2024-02-02T01:39:11.942Z,99.90
2024-02-02T01:41:41.969Z,99.90
2024-02-02T01:44:10.682Z,99.90
2024-02-02T01:46:39.235Z,99.90
2024-02-02T01:49:08.023Z,99.90
2024-02-02T01:51:36.772Z,99.90
2024-02-02T01:54:05.777Z,99.90
2024-02-02T01:56:34.394Z,99.90
2024-02-02T01:59:09.210Z,99.90
2024-02-02T02:01:38.310Z,99.90
2024-02-02T02:04:07.203Z,99.90
2024-02-02T02:06:36.464Z,99.90
2024-02-02T02:09:05.502Z,99.90
2024-02-02T02:11:37.136Z,99.90
2024-02-02T02:14:07.482Z,99.90
2024-02-02T02:16:36.114Z,99.90
2024-02-02T02:19:05.610Z,99.90
2024-02-02T02:21:35.692Z,99.90
2024-02-02T02:24:05.055Z,99.90
2024-02-02T02:26:34.184Z,99.90
2024-02-02T02:29:03.094Z,99.90
2024-02-02T02:31:31.872Z,99.90
2024-02-02T02:34:00.862Z,99.90
2024-02-02T02:36:29.553Z,99.90
2024-02-02T02:38:59.843Z,99.90
2024-02-02T02:41:28.816Z,99.90
2024-02-02T02:43:57.386Z,99.90
2024-02-02T02:46:26.398Z,99.90
2024-02-02T02:48:55.180Z,99.90
2024-02-02T02:51:23.943Z,99.90
2024-02-02T02:53:52.525Z,99.90
2024-02-02T02:56:22.382Z,99.90
2024-02-02T02:58:50.845Z,99.90
2024-02-02T03:01:19.597Z,99.90
2024-02-02T03:03:50.535Z,99.90
2024-02-02T03:06:19.315Z,99.90
2024-02-02T03:08:48.116Z,99.90
2024-02-02T03:11:16.876Z,99.90
2024-02-02T03:13:47.103Z,99.90
2024-02-02T03:16:15.865Z,99.90
2024-02-02T03:18:45.779Z,99.90
2024-02-02T03:21:14.875Z,99.90
2024-02-02T03:23:43.439Z,99.90
2024-02-02T03:26:12.012Z,99.90
2024-02-02T03:28:40.573Z,99.90
2024-02-02T03:31:10.501Z,99.90
2024-02-02T03:33:39.166Z,99.90
2024-02-02T03:36:08.123Z,99.90
2024-02-02T03:38:36.756Z,99.90
2024-02-02T03:41:05.692Z,99.90
2024-02-02T03:43:34.193Z,99.90
2024-02-02T03:46:02.631Z,99.90
2024-02-02T03:48:33.162Z,99.90
2024-02-02T03:51:01.767Z,99.90
2024-02-02T03:53:30.359Z,99.90
2024-02-02T03:55:59.396Z,99.90
2024-02-02T03:58:27.900Z,99.90
2024-02-02T04:00:57.658Z,99.90
2024-02-02T04:03:26.563Z,99.90
2024-02-02T04:05:56.812Z,99.90
2024-02-02T04:08:27.840Z,99.90
2024-02-02T04:10:56.552Z,99.90
2024-02-02T04:13:25.211Z,99.90
2024-02-02T04:15:53.811Z,99.90
2024-02-02T04:18:22.374Z,99.90
2024-02-02T04:20:52.702Z,99.90
2024-02-02T04:23:22.820Z,99.90
2024-02-02T04:25:51.415Z,99.90
2024-02-02T04:28:19.857Z,99.90
2024-02-02T04:30:49.779Z,99.90
2024-02-02T04:33:18.466Z,99.90
2024-02-02T04:35:47.109Z,99.90
2024-02-02T04:38:18.433Z,99.90
2024-02-02T04:40:48.532Z,99.90
2024-02-02T04:43:17.309Z,99.90
2024-02-02T04:45:45.828Z,99.90
2024-02-02T04:48:15.334Z,99.90
2024-02-02T04:50:43.931Z,99.90
2024-02-02T04:53:14.249Z,99.90
2024-02-02T04:55:42.824Z,99.90
2024-02-02T04:58:13.205Z,99.90
2024-02-02T05:00:41.937Z,99.90
2024-02-02T05:03:11.088Z,99.90
2024-02-02T05:05:39.789Z,99.90
2024-02-02T05:08:09.745Z,99.90
2024-02-02T05:10:38.308Z,99.90
2024-02-02T05:13:07.324Z,99.90
2024-02-02T05:15:38.028Z,99.90
2024-02-02T05:18:08.101Z,99.90
2024-02-02T05:20:36.830Z,99.90
2024-02-02T05:23:05.635Z,99.90
2024-02-02T05:25:34.244Z,99.90
2024-02-02T05:28:02.872Z,99.90
2024-02-02T05:30:31.436Z,99.90
2024-02-02T05:33:01.938Z,99.90
2024-02-02T05:35:30.477Z,99.90
2024-02-02T05:37:59.021Z,99.90
2024-02-02T05:40:30.692Z,99.90
2024-02-02T05:43:02.108Z,99.90
2024-02-02T05:45:32.834Z,99.90
2024-02-02T05:48:03.080Z,99.90
2024-02-02T05:50:31.632Z,99.90
2024-02-02T05:53:00.132Z,99.90
2024-02-02T05:55:28.615Z,99.90
2024-02-02T05:57:58.428Z,99.90
2024-02-02T06:00:26.957Z,99.90
2024-02-02T06:02:55.570Z,99.90
2024-02-02T06:05:25.906Z,99.90
2024-02-02T06:07:54.479Z,99.90
2024-02-02T06:10:22.920Z,99.90
2024-02-02T06:12:52.125Z,99.90
2024-02-02T06:15:20.881Z,99.90
2024-02-02T06:17:52.693Z,99.90
2024-02-02T06:20:22.331Z,99.90
2024-02-02T06:22:52.241Z,99.90
2024-02-02T06:25:20.852Z,99.90
2024-02-02T06:27:49.325Z,99.90
2024-02-02T06:30:18.705Z,99.90
2024-02-02T06:32:50.321Z,99.90
2024-02-02T06:35:19.063Z,99.90
2024-02-02T06:37:47.681Z,99.90
2024-02-02T06:40:17.627Z,99.90
2024-02-02T06:42:46.136Z,99.90
2024-02-02T06:45:14.881Z,99.90
2024-02-02T06:47:44.206Z,99.90
2024-02-02T06:50:12.742Z,99.90
2024-02-02T06:52:41.527Z,99.90
2024-02-02T06:55:10.556Z,99.90
2024-02-02T06:57:44.096Z,99.90
2024-02-02T07:00:17.114Z,99.90
2024-02-02T07:02:46.577Z,99.90
2024-02-02T07:05:16.444Z,99.90
2024-02-02T07:07:45.520Z,99.90
2024-02-02T07:10:19.494Z,99.90
2024-02-02T07:12:58.331Z,99.90
2024-02-02T07:15:32.838Z,99.90
2024-02-02T07:18:02.103Z,99.90
2024-02-02T07:21:05.843Z,99.90
2024-02-02T07:23:41.600Z,99.90
2024-02-02T07:26:27.543Z,99.90
2024-02-02T07:28:58.240Z,99.90
2024-02-02T07:31:49.566Z,99.90
2024-02-02T07:34:43.893Z,99.90
2024-02-02T07:37:39.134Z,99.90
2024-02-02T07:41:02.197Z,99.90
2024-02-02T07:43:34.084Z,99.90
2024-02-02T07:46:11.154Z,99.90
2024-02-02T07:48:42.167Z,99.90
2024-02-02T07:51:11.109Z,99.90
2024-02-02T07:53:42.190Z,99.90
2024-02-02T07:56:14.015Z,99.90
2024-02-02T07:58:42.986Z,99.90
2024-02-02T08:01:13.511Z,99.90
2024-02-02T08:03:42.460Z,99.90
2024-02-02T08:06:11.428Z,99.90
2024-02-02T08:08:39.957Z,99.90
2024-02-02T08:11:08.425Z,99.90
2024-02-02T08:13:37.262Z,99.90
2024-02-02T08:16:06.658Z,99.90
2024-02-02T08:18:38.173Z,99.90
2024-02-02T08:21:08.431Z,99.90
2024-02-02T08:23:38.724Z,99.90
2024-02-02T08:26:07.796Z,99.90
2024-02-02T08:28:45.339Z,99.90
2024-02-02T08:31:20.536Z,99.90
2024-02-02T08:33:51.322Z,99.90
2024-02-02T08:36:20.552Z,99.90
2024-02-02T08:38:49.372Z,99.90
2024-02-02T08:41:18.608Z,99.90
2024-02-02T08:43:48.904Z,99.90
2024-02-02T08:46:24.223Z,99.90
2024-02-02T08:48:56.503Z,99.90
2024-02-02T08:51:53.383Z,99.90
2024-02-02T08:54:39.053Z,99.90
2024-02-02T08:57:35.440Z,99.90
2024-02-02T09:00:16.469Z,99.90
2024-02-02T09:03:36.636Z,99.90
2024-02-02T09:06:09.178Z,99.90
2024-02-02T09:08:42.008Z,99.90
2024-02-02T09:11:22.352Z,99.90
2024-02-02T09:14:08.748Z,99.90
2024-02-02T09:16:44.605Z,99.90
2024-02-02T09:19:32.908Z,99.90
2024-02-02T09:22:10.469Z,99.90
2024-02-02T09:24:44.185Z,99.90
2024-02-02T09:27:17.213Z,99.90
2024-02-02T09:29:51.310Z,99.90
2024-02-02T09:32:20.036Z,99.90
2024-02-02T09:34:49.868Z,99.90
2024-02-02T09:37:27.380Z,99.90
2024-02-02T09:39:57.541Z,99.90
2024-02-02T09:43:11.476Z,99.90
2024-02-02T09:46:05.171Z,99.90
2024-02-02T09:48:56.864Z,99.90
2024-02-02T09:51:40.874Z,99.90
2024-02-02T09:54:31.665Z,99.90
2024-02-02T09:57:16.203Z,99.90
2024-02-02T10:00:03.452Z,99.90
2024-02-02T10:03:09.027Z,99.90
2024-02-02T10:05:55.478Z,99.90
2024-02-02T10:08:59.196Z,99.90
2024-02-02T10:12:00.402Z,99.90
2024-02-02T10:15:25.599Z,99.90
2024-02-02T10:18:43.361Z,99.90
2024-02-02T10:21:29.228Z,99.90
2024-02-02T10:24:28.582Z,99.90
2024-02-02T10:27:23.876Z,99.90
2024-02-02T10:30:10.720Z,99.90
2024-02-02T10:33:10.216Z,99.90
2024-02-02T10:35:53.319Z,99.90
2024-02-02T10:38:36.993Z,99.90
2024-02-02T10:41:21.428Z,99.90
2024-02-02T10:44:09.710Z,99.90
2024-02-02T10:46:51.745Z,99.90
2024-02-02T10:49:50.337Z,99.90
2024-02-02T10:52:33.435Z,99.90
2024-02-02T10:55:29.542Z,99.90
2024-02-02T10:58:13.827Z,99.90
2024-02-02T11:00:56.977Z,99.90
2024-02-02T11:03:37.135Z,99.90
2024-02-02T11:06:24.381Z,99.90
2024-02-02T11:09:35.159Z,99.90
2024-02-02T11:12:13.188Z,99.90
2024-02-02T11:14:49.636Z,99.90
2024-02-02T11:17:31.820Z,99.90
2024-02-02T11:20:24.564Z,99.90
2024-02-02T11:23:01.844Z,99.90
2024-02-02T11:25:40.528Z,99.90
2024-02-02T11:28:22.438Z,99.90
2024-02-02T11:31:07.406Z,99.90
2024-02-02T11:33:59.470Z,99.90
2024-02-02T11:36:52.027Z,99.90
2024-02-02T11:39:38.256Z,99.90
2024-02-02T11:42:12.977Z,99.90
2024-02-02T11:44:45.045Z,99.90
2024-02-02T11:47:15.360Z,99.90
2024-02-02T11:49:51.145Z,99.90
2024-02-02T11:52:28.825Z,99.90
2024-02-02T11:55:10.091Z,99.90
2024-02-02T11:57:49.426Z,99.90
2024-02-02T12:00:34.300Z,99.90
2024-02-02T12:03:25.647Z,99.90
2024-02-02T12:06:11.776Z,99.90
2024-02-02T12:08:58.054Z,99.90
2024-02-02T12:11:43.590Z,99.90
2024-02-02T12:14:25.979Z,99.90
2024-02-02T12:16:54.844Z,99.90
2024-02-02T12:19:23.747Z,99.90
2024-02-02T12:21:54.173Z,99.90
2024-02-02T12:24:23.610Z,99.90
2024-02-02T12:26:52.869Z,99.90
2024-02-02T12:29:22.564Z,99.90
2024-02-02T12:31:51.219Z,99.90
2024-02-02T12:34:20.569Z,99.90
2024-02-02T12:36:49.241Z,99.90
2024-02-02T12:39:19.265Z,99.90
2024-02-02T12:41:51.497Z,99.90
2024-02-02T12:44:20.302Z,99.90
2024-02-02T12:46:48.984Z,99.90
2024-02-02T12:49:17.601Z,99.90
2024-02-02T12:51:46.934Z,99.90
2024-02-02T12:54:16.892Z,99.90
2024-02-02T12:56:46.965Z,99.90
2024-02-02T12:59:19.459Z,99.90
2024-02-02T13:01:49.306Z,99.90
2024-02-02T13:04:18.762Z,99.90
2024-02-02T13:06:47.856Z,99.90
2024-02-02T13:09:50.596Z,99.90
2024-02-02T13:12:30.179Z,99.90
2024-02-02T13:15:09.745Z,99.90
2024-02-02T13:17:38.932Z,99.90
2024-02-02T13:20:20.812Z,99.90
2024-02-02T13:22:51.472Z,99.90
2024-02-02T13:25:25.772Z,99.90
2024-02-02T13:27:57.006Z,99.90
2024-02-02T13:30:27.975Z,99.90
2024-02-02T13:32:58.136Z,99.90
2024-02-02T13:35:32.467Z,99.90
2024-02-02T13:38:03.847Z,99.90
2024-02-02T13:40:32.744Z,99.90
2024-02-02T13:43:02.655Z,99.90
2024-02-02T13:45:31.990Z,99.90
2024-02-02T13:48:02.263Z,99.90
2024-02-02T13:50:41.683Z,99.90
2024-02-02T13:53:10.906Z,99.90
2024-02-02T13:55:40.666Z,99.90
2024-02-02T13:58:10.766Z,99.90
2024-02-02T14:00:39.382Z,99.90
2024-02-02T14:03:10.990Z,99.90
2024-02-02T14:05:41.794Z,99.90
2024-02-02T14:08:12.658Z,99.90
2024-02-02T14:10:45.463Z,99.90
2024-02-02T14:13:20.425Z,99.90
2024-02-02T14:15:51.929Z,99.90
2024-02-02T14:18:22.539Z,99.90
2024-02-02T14:20:53.128Z,99.90
2024-02-02T14:23:25.699Z,99.90
2024-02-02T14:25:54.314Z,99.90
2024-02-02T14:28:26.155Z,99.90
2024-02-02T14:31:03.271Z,99.90
2024-02-02T14:33:32.031Z,99.90
2024-02-02T14:36:02.375Z,99.90
2024-02-02T14:38:31.895Z,99.90
2024-02-02T14:41:00.559Z,99.90
2024-02-02T14:43:30.396Z,99.90
2024-02-02T14:46:00.966Z,99.90
2024-02-02T14:48:29.844Z,99.90
2024-02-02T14:51:00.218Z,99.90
2024-02-02T14:53:30.772Z,99.90
2024-02-02T14:56:00.223Z,99.90
2024-02-02T14:58:30.413Z,99.90
2024-02-02T15:01:01.769Z,99.90
2024-02-02T15:03:30.609Z,99.90
2024-02-02T15:06:00.350Z,99.90
2024-02-02T15:08:29.340Z,99.90
2024-02-02T15:10:57.894Z,99.90
2024-02-02T15:13:26.737Z,99.90
2024-02-02T15:15:56.861Z,99.90
2024-02-02T15:18:25.499Z,99.90
2024-02-02T15:20:53.188Z,99.90
2024-02-02T15:23:21.803Z,99.90
2024-02-02T15:25:50.678Z,99.90
2024-02-02T15:28:19.279Z,99.90
2024-02-02T15:30:47.965Z,99.90
2024-02-02T15:33:18.033Z,99.90
2024-02-02T15:35:48.157Z,99.90
2024-02-02T15:38:16.605Z,99.90
2024-02-02T15:40:45.306Z,99.90
2024-02-02T15:43:14.087Z,99.90
2024-02-02T15:45:43.401Z,99.90
2024-02-02T15:48:12.582Z,99.90
2024-02-02T15:50:47.260Z,99.90
2024-02-02T15:53:16.542Z,99.90
2024-02-02T15:55:46.032Z,99.90
2024-02-02T15:58:14.741Z,99.90
2024-02-02T16:00:43.366Z,99.90
2024-02-02T16:03:12.420Z,99.90
2024-02-02T16:05:42.606Z,99.90
2024-02-02T16:08:13.282Z,99.90
2024-02-02T16:10:41.902Z,99.90
2024-02-02T16:13:10.492Z,99.90
2024-02-02T16:15:39.629Z,99.90
2024-02-02T16:18:08.963Z,99.90
2024-02-02T16:20:38.095Z,99.90
2024-02-02T16:23:08.113Z,99.90
2024-02-02T16:25:36.617Z,99.90
2024-02-02T16:28:05.773Z,99.90
2024-02-02T16:30:34.304Z,99.90
2024-02-02T16:33:03.028Z,99.90
2024-02-02T16:35:31.633Z,99.90
2024-02-02T16:38:01.315Z,99.90
2024-02-02T16:40:31.219Z,99.90
2024-02-02T16:42:59.862Z,99.90
2024-02-02T16:45:28.334Z,99.90
2024-02-02T16:47:56.836Z,99.90
2024-02-02T16:50:25.458Z,99.90
2024-02-02T16:52:54.028Z,99.90
2024-02-02T16:55:22.480Z,99.90
2024-02-02T16:57:53.244Z,99.90
2024-02-02T17:00:23.500Z,99.90
2024-02-02T17:02:52.558Z,99.90
2024-02-02T17:05:21.268Z,99.90
2024-02-02T17:07:50.060Z,99.90
2024-02-02T17:10:18.737Z,99.90
2024-02-02T17:12:52.370Z,99.90
2024-02-02T17:15:21.109Z,99.90
2024-02-02T17:17:49.680Z,99.90
2024-02-02T17:20:19.391Z,99.90
2024-02-02T17:22:48.005Z,99.90
2024-02-02T17:25:16.913Z,99.90
2024-02-02T17:27:46.261Z,99.90
2024-02-02T17:30:18.128Z,99.90
2024-02-02T17:32:46.979Z,99.90
2024-02-02T17:35:15.764Z,99.90
2024-02-02T17:37:44.785Z,99.90
2024-02-02T17:40:15.469Z,1.00
2024-02-02T17:42:45.110Z,1.00
2024-02-02T17:45:15.459Z,1.00
2024-02-02T17:47:44.183Z,1.00
2024-02-02T17:50:13.029Z,1.00
2024-02-02T17:52:41.663Z,99.90
2024-02-02T17:55:10.659Z,99.90
2024-02-02T17:57:39.098Z,99.90
2024-02-02T18:00:11.112Z,99.90
2024-02-02T18:02:43.874Z,99.90
2024-02-02T18:05:12.438Z,99.90
2024-02-02T18:07:47.458Z,99.90
2024-02-02T18:10:17.100Z,99.90
2024-02-02T18:12:45.858Z,90.60
2024-02-02T18:15:18.342Z,1.00
2024-02-02T18:17:48.580Z,1.00
2024-02-02T18:20:17.407Z,1.00
2024-02-02T18:22:47.414Z,1.00
2024-02-02T18:25:16.268Z,1.00
2024-02-02T18:27:44.911Z,1.00
2024-02-02T18:30:15.144Z,1.00
2024-02-02T18:32:45.410Z,1.00
2024-02-02T18:35:15.415Z,1.00
2024-02-02T18:37:44.749Z,1.00
2024-02-02T18:40:14.802Z,1.00
2024-02-02T18:42:43.685Z,1.00
2024-02-02T18:45:12.761Z,1.00
2024-02-02T18:47:41.396Z,1.00
2024-02-02T18:50:11.345Z,1.00
2024-02-02T18:52:41.277Z,1.00
2024-02-02T18:55:10.719Z,1.00
2024-02-02T18:57:39.307Z,1.00
2024-02-02T19:00:10.467Z,1.00
2024-02-02T19:02:39.207Z,1.00
2024-02-02T19:05:08.930Z,1.00
2024-02-02T19:07:37.850Z,1.00
2024-02-02T19:10:08.653Z,1.00
2024-02-02T19:12:37.663Z,1.00
2024-02-02T19:15:07.892Z,1.00
2024-02-02T19:17:36.639Z,1.00
2024-02-02T19:20:06.071Z,1.00
2024-02-02T19:22:34.701Z,1.00
2024-02-02T19:25:03.378Z,1.00
2024-02-02T19:27:33.530Z,1.00
2024-02-02T19:30:02.175Z,1.00
2024-02-02T19:32:31.204Z,1.00
2024-02-02T19:35:00.198Z,1.00
2024-02-02T19:37:28.676Z,1.00
2024-02-02T19:39:57.272Z,1.00
2024-02-02T19:42:25.878Z,1.00
2024-02-02T19:44:55.746Z,1.00
2024-02-02T19:47:24.154Z,1.00
2024-02-02T19:49:52.742Z,1.00
2024-02-02T19:52:21.356Z,1.00
2024-02-02T19:54:49.994Z,1.00
2024-02-02T19:57:18.705Z,1.00
2024-02-02T19:59:47.271Z,1.00
2024-02-02T20:02:18.990Z,1.00
2024-02-02T20:04:47.571Z,1.00
2024-02-02T20:07:18.179Z,1.00
2024-02-02T20:09:46.756Z,1.00
2024-02-02T20:12:15.262Z,1.00
2024-02-02T20:14:43.829Z,1.00
2024-02-02T20:17:12.427Z,1.00
2024-02-02T20:19:42.987Z,1.00
2024-02-02T20:22:11.524Z,1.00
2024-02-02T20:24:42.940Z,1.00
2024-02-02T20:27:11.958Z,1.00
2024-02-02T20:29:41.088Z,1.00
2024-02-02T20:32:10.661Z,1.00
2024-02-02T20:34:40.626Z,1.00
2024-02-02T20:37:10.699Z,1.00
2024-02-02T20:39:40.892Z,1.00
2024-02-02T20:42:09.770Z,1.00
2024-02-02T20:44:43.106Z,1.00
2024-02-02T20:47:12.025Z,1.00
2024-02-02T20:49:45.203Z,1.00
2024-02-02T20:52:17.422Z,1.00
2024-02-02T20:54:46.265Z,1.00
2024-02-02T20:57:15.289Z,1.00
2024-02-02T20:59:43.942Z,1.00
2024-02-02T21:02:13.081Z,11.10
2024-02-02T21:04:41.659Z,42.00
2024-02-02T21:07:12.189Z,92.90
2024-02-02T21:09:42.339Z,95.10
2024-02-02T21:12:12.157Z,58.80
2024-02-02T21:14:42.186Z,38.40
2024-02-02T21:17:11.498Z,6.80
2024-02-02T21:19:41.896Z,5.70
2024-02-02T21:22:10.500Z,1.00
2024-02-02T21:24:40.420Z,1.00
2024-02-02T21:27:10.926Z,1.00
2024-02-02T21:29:39.601Z,1.00
2024-02-02T21:32:08.350Z,1.00
2024-02-02T21:34:37.316Z,1.00
2024-02-02T21:37:06.376Z,1.00
2024-02-02T21:39:35.093Z,1.00
2024-02-02T21:42:04.146Z,1.00
2024-02-02T21:44:36.796Z,1.00
2024-02-02T21:47:05.945Z,1.00
2024-02-02T21:49:38.995Z,1.00
2024-02-02T21:52:09.524Z,1.00
2024-02-02T21:54:40.905Z,1.00
2024-02-02T21:57:09.703Z,1.00
2024-02-02T21:59:40.856Z,22.40
2024-02-02T22:02:09.674Z,99.90
2024-02-02T22:04:38.460Z,1.00
2024-02-02T22:07:09.748Z,99.90
2024-02-02T22:09:38.397Z,1.00
2024-02-02T22:12:07.976Z,1.00
2024-02-02T22:14:39.849Z,84.80
2024-02-02T22:17:09.820Z,99.90
2024-02-02T22:19:39.746Z,1.00
2024-02-02T22:22:08.624Z,1.00
2024-02-02T22:24:40.675Z,99.90
2024-02-02T22:27:10.234Z,99.90
2024-02-02T22:29:38.888Z,1.00
2024-02-02T22:32:10.052Z,1.00
2024-02-02T22:34:38.774Z,1.00
2024-02-02T22:37:07.433Z,99.90
2024-02-02T22:39:36.354Z,99.90
2024-02-02T22:42:07.487Z,99.90
2024-02-02T22:44:35.997Z,99.90
2024-02-02T22:47:04.938Z,99.90
2024-02-02T22:49:35.241Z,99.90
2024-02-02T22:52:04.336Z,1.00
2024-02-02T22:54:32.985Z,1.00
2024-02-02T22:57:01.746Z,1.00
2024-02-02T22:59:30.839Z,1.00
2024-02-02T23:01:59.667Z,1.00
2024-02-02T23:04:28.306Z,99.90
2024-02-02T23:06:58.259Z,1.00
2024-02-02T23:09:27.013Z,1.00
2024-02-02T23:11:55.617Z,1.00
2024-02-02T23:14:24.247Z,99.90
2024-02-02T23:16:52.841Z,1.00
2024-02-02T23:19:21.570Z,99.90
2024-02-02T23:21:50.301Z,99.90
2024-02-02T23:24:20.104Z,1.00
2024-02-02T23:26:48.692Z,1.00
2024-02-02T23:29:17.145Z,1.00
2024-02-02T23:31:45.736Z,1.00
2024-02-02T23:34:14.504Z,1.00
2024-02-02T23:36:43.160Z,1.00
2024-02-02T23:39:11.767Z,1.00
2024-02-02T23:41:41.632Z,1.00
2024-02-02T23:44:10.318Z,99.90
2024-02-02T23:46:38.778Z,99.90
2024-02-02T23:49:07.803Z,1.00
2024-02-02T23:51:36.545Z,1.00
2024-02-02T23:54:05.411Z,99.90
2024-02-02T23:56:35.111Z,1.00
2024-02-02T23:59:05.037Z,1.00
